Time;durP1;ratioP1;P1;durP2;ratioP2;P2;SDS_P1;SDS_P2;PMS_P1;PMS_P2;Temp;Humidity;BMP_temperature;BMP_pressure;BME280_temperature;BME280_humidity;BME280_pressure;Samples;Min_cycle;Max_cycle;Signal;HPM_P1;HPM_P2
2022/07/29 00:00:12;;;;;;;;;5.00;5.00;;;;;21.89;37.85;100899.78;5076105;27;46199;-65
2022/07/29 00:02:37;;;;;;;;;9.00;7.33;;;;;21.95;36.87;100910.00;5078486;27;45291;-63
2022/07/29 00:05:04;;;;;;;;;6.33;6.33;;;;;21.94;37.25;100909.13;5097409;27;45215;-64
2022/07/29 00:07:29;;;;;;;;;7.00;5.67;;;;;21.90;37.04;100912.31;5097092;27;45239;-63
2022/07/29 00:09:55;;;;;;;;;6.33;5.00;;;;;21.86;37.36;100911.75;5077519;27;46008;-63
2022/07/29 00:12:23;;;;;;;;;4.00;4.00;;;;;21.82;37.06;100898.66;5096713;27;45337;-67
2022/07/29 00:14:49;;;;;;;;;6.00;6.00;;;;;21.85;37.20;100898.34;5096766;27;45450;-64
2022/07/29 00:17:14;;;;;;;;;8.00;5.67;;;;;21.84;37.39;100904.78;5097220;27;45239;-64
2022/07/29 00:19:40;;;;;;;;;3.33;3.33;;;;;21.80;37.42;100888.00;5077736;27;45504;-65
2022/07/29 00:22:05;;;;;;;;;6.00;4.33;;;;;21.75;37.29;100893.88;5095948;27;45331;-62
2022/07/29 00:24:31;;;;;;;;;6.00;5.67;;;;;21.73;37.42;100895.84;5096564;27;45415;-62
2022/07/29 00:26:56;;;;;;;;;6.00;5.33;;;;;21.73;37.55;100898.56;5100221;27;45442;-65
2022/07/29 00:29:22;;;;;;;;;7.33;6.00;;;;;21.71;37.48;100892.44;5099048;27;45496;-63
2022/07/29 00:31:47;;;;;;;;;6.00;6.00;;;;;21.67;37.79;100891.06;5081703;27;45324;-63
2022/07/29 00:36:57;;;;;;;;;6.50;5.00;;;;;21.66;37.93;100885.78;5100365;27;45263;-65
2022/07/29 00:39:23;;;;;;;;;6.00;6.00;;;;;21.59;37.95;100873.84;5098904;27;45363;-64
2022/07/29 00:41:49;;;;;;;;;5.33;5.33;;;;;21.61;37.95;100883.50;5079376;27;45891;-64
2022/07/29 00:44:14;;;;;;;;;5.00;5.00;;;;;21.56;38.33;100872.31;5100148;27;45279;-62
2022/07/29 00:46:39;;;;;;;;;6.33;6.33;;;;;21.59;37.80;100888.22;5100124;27;45541;-64
2022/07/29 00:49:07;;;;;;;;;5.67;5.33;;;;;21.52;38.43;100876.31;5099067;27;45687;-63
2022/07/29 00:51:34;;;;;;;;;5.67;5.00;;;;;21.41;38.32;100863.81;5098702;27;45567;-63
2022/07/29 00:53:59;;;;;;;;;4.00;4.00;;;;;21.42;38.75;100870.09;5099479;27;45362;-64
2022/07/29 00:56:25;;;;;;;;;5.33;5.33;;;;;21.51;38.56;100885.44;5099856;27;45314;-64
2022/07/29 00:58:51;;;;;;;;;7.33;6.33;;;;;21.52;38.53;100876.31;5098616;27;45476;-66
2022/07/29 01:01:16;;;;;;;;;7.67;7.67;;;;;21.52;38.31;100880.88;5099546;27;45448;-63
2022/07/29 01:03:42;;;;;;;;;8.00;7.00;;;;;21.48;38.42;100885.72;5099500;27;45236;-63
2022/07/29 01:06:09;;;;;;;;;9.00;6.00;;;;;21.47;38.87;100878.59;5098571;27;45615;-63
2022/07/29 01:08:35;;;;;;;;;9.33;7.67;;;;;21.39;38.36;100870.41;5098177;27;45529;-62
2022/07/29 01:11:02;;;;;;;;;6.33;6.33;;;;;21.39;38.49;100875.81;5099150;27;45445;-62
2022/07/29 01:13:30;;;;;;;;;8.33;6.33;;;;;21.35;38.88;100879.78;5081139;27;45505;-63
2022/07/29 01:16:01;;;;;;;;;7.00;6.00;;;;;21.30;38.74;100877.53;5099372;27;45481;-64
2022/07/29 01:18:39;;;;;;;;;6.67;6.00;;;;;21.27;38.83;100887.81;5098336;27;46199;-61
2022/07/29 01:21:10;;;;;;;;;4.00;4.00;;;;;21.23;39.08;100880.97;5078581;28;45331;-64
2022/07/29 01:23:53;;;;;;;;;4.00;4.00;;;;;21.22;39.12;100882.78;5096609;27;45239;-63
2022/07/29 01:26:39;;;;;;;;;5.67;5.67;;;;;21.21;39.67;100881.94;5099145;27;45209;-63
2022/07/29 01:29:07;;;;;;;;;5.67;5.00;;;;;21.24;39.03;100879.97;5097109;27;46649;-63
2022/07/29 01:32:05;;;;;;;;;7.67;7.00;;;;;21.21;39.19;100884.66;5098911;27;45576;-65
2022/07/29 01:34:49;;;;;;;;;7.00;5.00;;;;;21.24;39.36;100888.09;5080827;27;45419;-65
2022/07/29 01:37:39;;;;;;;;;7.67;6.00;;;;;21.21;39.63;100884.66;5098214;27;45528;-61
2022/07/29 01:40:13;;;;;;;;;9.67;7.00;;;;;21.17;39.28;100880.53;5091542;27;46404;-63
2022/07/29 01:42:43;;;;;;;;;5.33;5.33;;;;;21.21;39.12;100879.25;5078870;28;45242;-64
2022/07/29 01:45:15;;;;;;;;;4.00;4.00;;;;;21.17;39.22;100880.53;5077464;28;45354;-63
2022/07/29 01:48:06;;;;;;;;;8.33;5.67;;;;;21.13;39.40;100887.25;5060371;28;45620;-63
2022/07/29 01:50:44;;;;;;;;;13.00;7.00;;;;;21.07;39.38;100885.13;5094886;27;45716;-64
2022/07/29 01:53:12;;;;;;;;;8.33;7.00;;;;;21.05;39.46;100883.56;5098983;27;45423;-64
2022/07/29 01:55:45;;;;;;;;;6.00;5.00;;;;;21.05;40.03;100883.56;5099168;27;45543;-64
2022/07/29 01:58:14;;;;;;;;;6.00;6.00;;;;;21.02;40.16;100879.31;5080962;27;45272;-64
2022/07/29 02:00:40;;;;;;;;;6.67;6.00;;;;;21.11;39.72;100893.81;5097310;27;46504;-65
2022/07/29 02:03:10;;;;;;;;;9.33;6.00;;;;;21.11;40.23;100883.84;5098203;27;45363;-64
2022/07/29 02:05:38;;;;;;;;;9.00;7.00;;;;;21.11;39.67;100897.38;5099154;27;45182;-64
2022/07/29 02:08:07;;;;;;;;;7.00;7.00;;;;;21.09;39.94;100891.22;5099317;27;45493;-65
2022/07/29 02:10:34;;;;;;;;;7.00;6.00;;;;;21.01;40.10;100877.59;5097861;27;46006;-65
2022/07/29 02:13:02;;;;;;;;;8.00;6.33;;;;;21.09;40.27;100887.66;5097864;27;45357;-63
2022/07/29 02:15:31;;;;;;;;;11.67;8.00;;;;;21.01;40.06;100871.34;5098243;27;45470;-64
2022/07/29 02:18:12;;;;;;;;;6.67;5.67;;;;;21.05;40.02;100880.88;5098703;27;45626;-64
2022/07/29 02:20:40;;;;;;;;;6.67;5.00;;;;;21.15;39.96;100893.38;5080603;27;45458;-63
2022/07/29 02:23:09;;;;;;;;;10.00;7.00;;;;;21.13;40.06;100897.22;5080037;27;45485;-64
2022/07/29 02:25:34;;;;;;;;;6.67;6.67;;;;;21.09;39.74;100890.38;5098225;27;45449;-64
2022/07/29 02:28:01;;;;;;;;;6.33;6.33;;;;;21.03;40.29;100882.88;5098060;27;45582;-64
2022/07/29 02:30:28;;;;;;;;;7.33;5.33;;;;;21.08;39.75;100897.63;5097129;27;45369;-64
2022/07/29 02:32:55;;;;;;;;;8.67;6.33;;;;;21.05;39.72;100889.81;5096632;27;45500;-63
2022/07/29 02:35:21;;;;;;;;;5.67;5.67;;;;;21.09;40.11;100896.63;5079958;27;45390;-64
2022/07/29 02:38:50;;;;;;;;;6.33;6.33;;;;;21.04;40.03;100890.81;5098384;27;45568;-63
2022/07/29 02:40:37;;;;;;;;;7.33;6.33;;;;;20.98;40.30;100880.63;5093583;27;46428;-64
2022/07/29 02:43:06;;;;;;;;;5.67;5.67;;;;;21.03;39.71;100897.25;5097687;27;45300;-65
2022/07/29 02:45:33;;;;;;;;;10.67;8.67;;;;;21.05;40.36;100900.66;5097872;27;45446;-64
2022/07/29 02:48:03;;;;;;;;;7.00;7.00;;;;;21.08;40.57;100894.94;5097831;27;45290;-64
2022/07/29 02:50:47;;;;;;;;;8.67;6.67;;;;;20.96;40.33;100885.28;5095191;27;45612;-64
2022/07/29 02:53:18;;;;;;;;;10.00;9.00;;;;;21.00;40.23;100880.47;5097930;27;45545;-64
2022/07/29 02:55:48;;;;;;;;;10.00;7.00;;;;;21.02;40.52;100884.72;5079541;27;45286;-63
2022/07/29 02:58:28;;;;;;;;;7.00;7.00;;;;;21.07;40.56;100901.34;5098160;27;45420;-64
2022/07/29 03:00:57;;;;;;;;;9.00;8.00;;;;;21.08;40.43;100900.34;5096643;27;46107;-63
2022/07/29 03:03:28;;;;;;;;;5.67;5.67;;;;;21.05;40.54;100894.38;5097020;27;45408;-63
2022/07/29 03:05:56;;;;;;;;;12.00;7.00;;;;;21.02;40.10;100884.72;5097718;27;45358;-64
2022/07/29 03:08:23;;;;;;;;;11.00;6.67;;;;;20.99;40.41;100886.88;5097744;27;45225;-64
2022/07/29 03:10:51;;;;;;;;;7.00;7.00;;;;;20.95;40.67;100897.09;5096637;27;46365;-63
2022/07/29 03:13:18;;;;;;;;;8.67;7.00;;;;;21.00;40.70;100907.50;5079863;27;45296;-68
2022/07/29 03:15:45;;;;;;;;;7.67;7.67;;;;;21.00;40.62;100908.34;5079789;27;45336;-64
2022/07/29 03:18:11;;;;;;;;;10.67;10.67;;;;;21.00;40.60;100908.34;5097906;27;45232;-64
2022/07/29 03:20:40;;;;;;;;;8.00;6.33;;;;;20.99;40.64;100909.34;5096542;27;45267;-63
2022/07/29 03:23:05;;;;;;;;;8.00;8.00;;;;;20.97;41.12;100916.75;5097391;27;45441;-65
2022/07/29 03:25:31;;;;;;;;;13.00;8.33;;;;;20.95;40.98;100910.63;5097408;27;45307;-63
2022/07/29 03:27:56;;;;;;;;;9.00;7.00;;;;;20.95;41.34;100916.03;5097560;27;45596;-70
2022/07/29 03:30:23;;;;;;;;;11.33;9.00;;;;;20.91;41.95;100909.22;5096172;27;46064;-62
2022/07/29 03:32:50;;;;;;;;;10.00;9.33;;;;;20.83;42.38;100914.47;5097529;27;45352;-64
2022/07/29 03:35:16;;;;;;;;;9.00;8.00;;;;;20.72;43.24;100903.84;5097816;27;45337;-63
2022/07/29 03:37:43;;;;;;;;;8.33;8.33;;;;;20.65;43.14;100903.56;5097478;27;45248;-63
2022/07/29 03:40:11;;;;;;;;;11.00;8.67;;;;;20.71;43.98;100910.25;5088994;27;46094;-63
2022/07/29 03:42:39;;;;;;;;;7.00;7.00;;;;;20.67;43.92;100906.09;5058366;28;45362;-64
2022/07/29 03:45:09;;;;;;;;;11.00;10.00;;;;;20.57;44.21;100909.69;5058183;28;45317;-64
2022/07/29 03:47:40;;;;;;;;;12.67;10.00;;;;;20.60;44.01;100909.41;5076376;28;45541;-63
2022/07/29 03:50:10;;;;;;;;;7.67;7.67;;;;;20.63;43.94;100904.69;5083873;27;45368;-63
2022/07/29 03:52:36;;;;;;;;;11.33;10.33;;;;;20.60;44.03;100898.59;5096672;27;45363;-63
2022/07/29 03:55:02;;;;;;;;;10.33;10.33;;;;;20.67;43.89;100911.50;5096741;27;45258;-66
2022/07/29 03:57:30;;;;;;;;;8.33;8.33;;;;;20.65;44.06;100906.25;5097068;27;45588;-64
2022/07/29 03:59:56;;;;;;;;;10.33;10.33;;;;;20.68;43.85;100907.81;5095237;27;45398;-64
2022/07/29 04:02:23;;;;;;;;;12.33;10.33;;;;;20.63;44.07;100910.97;5096727;27;45279;-64
2022/07/29 04:04:48;;;;;;;;;11.00;9.33;;;;;20.63;44.35;100919.06;5097829;27;45607;-65
2022/07/29 04:07:15;;;;;;;;;13.00;11.00;;;;;20.61;44.23;100913.81;5098175;27;45456;-64
2022/07/29 04:09:41;;;;;;;;;12.00;9.00;;;;;20.57;44.04;100911.50;5097216;27;46234;-63
2022/07/29 04:12:06;;;;;;;;;10.67;10.67;;;;;20.65;43.77;100924.31;5096227;27;45507;-62
2022/07/29 04:14:33;;;;;;;;;10.33;8.67;;;;;20.63;43.83;100929.03;5097079;27;45298;-64
2022/07/29 04:17:00;;;;;;;;;10.33;10.33;;;;;20.61;43.25;100929.16;5078971;27;45315;-63
2022/07/29 04:19:25;;;;;;;;;12.00;9.67;;;;;20.58;43.37;100930.31;5078249;27;48501;-64
2022/07/29 04:21:51;;;;;;;;;8.67;8.67;;;;;20.53;43.52;100929.88;5096297;27;45221;-65
2022/07/29 04:24:16;;;;;;;;;12.67;10.00;;;;;20.33;43.92;100893.00;5095991;27;45311;-62
2022/07/29 04:26:42;;;;;;;;;10.00;10.00;;;;;20.49;43.67;100928.44;5096383;27;45243;-64
2022/07/29 04:29:07;;;;;;;;;9.00;9.00;;;;;20.47;43.54;100922.34;5096278;27;45255;-64
2022/07/29 04:31:32;;;;;;;;;9.00;9.00;;;;;20.47;43.31;100927.75;5096368;27;45327;-64
2022/07/29 04:33:58;;;;;;;;;10.67;7.67;;;;;20.48;43.57;100929.44;5077547;27;45386;-64
2022/07/29 04:36:24;;;;;;;;;8.67;8.00;;;;;20.50;43.65;100930.16;5096339;27;45344;-64
2022/07/29 04:38:49;;;;;;;;;12.67;10.00;;;;;20.49;43.42;100938.41;5096495;27;46246;-64
2022/07/29 04:41:14;;;;;;;;;9.67;8.67;;;;;20.45;43.58;100926.19;5094939;27;45435;-64
2022/07/29 04:43:40;;;;;;;;;8.33;8.33;;;;;20.49;43.52;100938.41;5095532;27;45454;-64
2022/07/29 04:46:06;;;;;;;;;9.00;9.00;;;;;20.49;43.48;100941.97;5096469;27;45374;-65
2022/07/29 04:48:32;;;;;;;;;9.00;9.00;;;;;20.49;42.84;100941.97;5095922;27;45371;-65
2022/07/29 04:50:58;;;;;;;;;8.00;8.00;;;;;20.45;42.69;100929.75;5095912;27;45325;-64
2022/07/29 04:53:24;;;;;;;;;9.00;9.00;;;;;20.51;42.57;100945.38;5096223;27;45295;-65
2022/07/29 04:55:49;;;;;;;;;12.33;8.33;;;;;20.49;42.59;100941.97;5096166;27;45430;-65
2022/07/29 04:58:14;;;;;;;;;8.00;6.67;;;;;20.42;42.92;100935.41;5078107;27;45997;-64
2022/07/29 05:00:40;;;;;;;;;7.67;7.67;;;;;20.49;43.18;100946.50;5096003;27;45196;-63
2022/07/29 05:03:06;;;;;;;;;12.33;9.33;;;;;20.50;42.80;100935.56;5096087;27;45227;-63
2022/07/29 05:05:31;;;;;;;;;6.33;6.33;;;;;20.56;42.78;100947.63;5095755;27;45318;-64
2022/07/29 05:07:57;;;;;;;;;9.00;9.00;;;;;20.54;42.90;100942.38;5095128;27;45646;-64
2022/07/29 05:10:22;;;;;;;;;10.67;9.33;;;;;20.54;42.90;100939.69;5095846;27;45270;-65
2022/07/29 05:12:48;;;;;;;;;11.67;9.00;;;;;20.48;43.14;100939.41;5097891;27;45609;-64
2022/07/29 05:15:13;;;;;;;;;9.00;9.00;;;;;20.61;43.08;100954.34;5099711;27;45601;-64
2022/07/29 05:17:39;;;;;;;;;12.00;10.33;;;;;20.68;43.15;100951.06;5080310;27;45496;-64
2022/07/29 05:20:06;;;;;;;;;6.67;6.67;;;;;20.68;43.50;100946.50;5098492;27;45705;-63
2022/07/29 05:22:31;;;;;;;;;8.67;7.00;;;;;20.81;43.21;100943.50;5099384;27;45386;-65
2022/07/29 05:24:57;;;;;;;;;8.00;8.00;;;;;20.88;42.91;100941.94;5099111;27;45613;-63
2022/07/29 05:27:22;;;;;;;;;11.00;10.00;;;;;20.89;42.80;100946.34;5099273;27;46132;-63
2022/07/29 05:29:47;;;;;;;;;9.67;8.00;;;;;20.87;42.54;100940.25;5080530;27;45591;-64
2022/07/29 05:32:13;;;;;;;;;9.00;7.33;;;;;20.85;42.48;100936.84;5079928;27;45261;-64
2022/07/29 05:34:38;;;;;;;;;8.67;8.67;;;;;20.91;42.33;100958.72;5099394;27;45230;-64
2022/07/29 05:37:04;;;;;;;;;14.67;14.67;;;;;20.95;42.64;100955.72;5099220;27;46043;-66
2022/07/29 05:39:29;;;;;;;;;9.33;9.33;;;;;20.97;42.27;100951.91;5097539;27;45305;-63
2022/07/29 05:41:55;;;;;;;;;9.33;9.00;;;;;20.88;42.30;100944.66;5078900;28;45712;-64
2022/07/29 05:44:20;;;;;;;;;10.67;7.67;;;;;20.85;43.14;100937.69;5094027;27;45540;-65
2022/07/29 05:46:45;;;;;;;;;15.33;14.33;;;;;20.87;43.11;100951.06;5098546;27;46001;-65
2022/07/29 05:49:11;;;;;;;;;17.67;14.00;;;;;20.86;43.57;100952.06;5080183;27;45416;-65
2022/07/29 05:51:37;;;;;;;;;11.00;10.00;;;;;20.92;42.82;100956.88;5098903;27;45290;-64
2022/07/29 05:54:03;;;;;;;;;7.67;6.33;;;;;20.87;43.36;100954.63;5099048;27;45376;-64
2022/07/29 05:56:29;;;;;;;;;17.00;16.00;;;;;20.92;43.39;100963.13;5079261;27;46000;-64
2022/07/29 05:58:54;;;;;;;;;16.33;15.00;;;;;20.95;43.34;100959.28;5098518;27;45421;-64
2022/07/29 06:01:20;;;;;;;;;19.67;16.67;;;;;20.96;43.40;100970.94;5098577;27;45497;-64
2022/07/29 06:03:45;;;;;;;;;19.33;15.00;;;;;20.93;43.52;100974.81;5098929;27;45244;-64
2022/07/29 06:06:11;;;;;;;;;11.33;11.33;;;;;20.96;43.79;100971.81;5098372;27;46404;-65
2022/07/29 06:08:37;;;;;;;;;16.33;16.33;;;;;21.04;43.72;100974.66;5097559;27;45556;-64
2022/07/29 06:11:04;;;;;;;;;16.00;14.00;;;;;21.10;43.76;100974.09;5098490;27;45459;-63
2022/07/29 06:13:30;;;;;;;;;12.00;12.00;;;;;21.13;43.50;100967.53;5098762;27;45518;-64
2022/07/29 06:15:55;;;;;;;;;15.00;11.00;;;;;21.25;43.21;100970.94;5098616;27;45220;-65
2022/07/29 06:18:23;;;;;;;;;12.33;11.67;;;;;21.28;43.46;100981.50;5097685;27;45218;-65
2022/07/29 06:20:52;;;;;;;;;15.00;13.00;;;;;21.31;43.29;100986.59;5098339;27;45460;-67
2022/07/29 06:23:18;;;;;;;;;17.00;13.33;;;;;21.27;43.21;100982.50;5098629;27;45411;-64
2022/07/29 06:25:44;;;;;;;;;16.00;14.67;;;;;21.30;43.39;100985.75;5096525;27;45345;-61
2022/07/29 06:28:10;;;;;;;;;15.33;13.67;;;;;21.31;43.65;100978.47;5094198;27;45374;-66
2022/07/29 06:30:35;;;;;;;;;17.00;15.67;;;;;21.40;43.18;100991.16;5098066;27;45310;-51
2022/07/29 06:33:01;;;;;;;;;20.33;16.67;;;;;21.41;43.52;100984.72;5098171;27;45235;-61
2022/07/29 06:35:27;;;;;;;;;19.67;16.67;;;;;21.31;44.29;100976.63;5096944;27;45380;-63
2022/07/29 06:37:53;;;;;;;;;18.00;17.00;;;;;21.38;43.61;100979.63;5097128;27;45490;-66
2022/07/29 06:43:03;;;;;;;;;18.00;16.67;;;;;21.52;44.18;100983.72;5077750;28;45342;-64
2022/07/29 06:45:28;;;;;;;;;16.00;12.67;;;;;21.51;43.99;100968.47;5087682;27;46086;-63
2022/07/29 06:47:54;;;;;;;;;17.00;16.00;;;;;21.62;43.87;101000.78;5097909;27;45445;-64
2022/07/29 06:50:21;;;;;;;;;15.33;14.00;;;;;21.57;43.76;100987.66;5096714;27;45445;-64
2022/07/29 06:52:47;;;;;;;;;17.33;17.33;;;;;21.64;43.48;101005.03;5096596;27;45495;-61
2022/07/29 06:55:13;;;;;;;;;18.67;15.33;;;;;21.58;43.36;100992.09;5093907;27;45456;-68
2022/07/29 06:57:39;;;;;;;;;16.67;13.33;;;;;21.67;42.84;100998.47;5095855;27;45938;-66
2022/07/29 07:00:06;;;;;;;;;21.67;15.33;;;;;21.66;42.72;100989.50;5097156;27;45274;-63
2022/07/29 07:02:32;;;;;;;;;14.00;14.00;;;;;21.78;43.68;100998.28;5097978;27;45616;-66
2022/07/29 07:04:58;;;;;;;;;40.33;28.33;;;;;21.73;43.29;100987.88;5094115;27;45486;-62
2022/07/29 07:07:27;;;;;;;;;16.00;14.33;;;;;21.83;44.03;101003.25;5097030;27;45350;-63
2022/07/29 07:09:53;;;;;;;;;16.33;13.00;;;;;21.79;42.63;100995.44;5095933;27;45437;-65
2022/07/29 07:12:19;;;;;;;;;12.33;12.33;;;;;21.81;42.68;100998.00;5097746;27;45412;-65
2022/07/29 07:14:44;;;;;;;;;16.67;13.67;;;;;21.77;42.71;100989.31;5095523;27;46682;-67
2022/07/29 07:17:09;;;;;;;;;15.00;13.33;;;;;21.87;43.18;101013.63;5078789;27;45397;-64
2022/07/29 07:19:35;;;;;;;;;16.00;13.67;;;;;21.85;43.32;101009.38;5095744;27;45365;-66
2022/07/29 07:22:00;;;;;;;;;12.33;10.67;;;;;21.86;42.41;101011.06;5097630;27;45509;-62
2022/07/29 07:24:26;;;;;;;;;15.00;12.00;;;;;21.92;42.65;101013.19;5097401;27;45998;-67
2022/07/29 07:26:51;;;;;;;;;12.67;12.33;;;;;21.95;43.12;101021.03;5078705;27;45334;-63
2022/07/29 07:29:17;;;;;;;;;10.00;10.00;;;;;22.00;42.47;101021.41;5096866;27;45282;-63
2022/07/29 07:31:42;;;;;;;;;11.67;11.67;;;;;21.95;43.10;101007.47;5097523;27;45465;-62
2022/07/29 07:34:08;;;;;;;;;10.00;8.00;;;;;22.02;42.66;101017.56;5079178;27;45622;-65
2022/07/29 07:36:33;;;;;;;;;11.00;10.67;;;;;22.03;43.13;101021.13;5096695;27;45378;-66
2022/07/29 07:38:59;;;;;;;;;10.33;8.00;;;;;21.93;42.88;101007.63;5097727;27;45392;-63
2022/07/29 07:41:24;;;;;;;;;6.67;6.33;;;;;22.03;42.25;101016.56;5097194;27;45617;-63
2022/07/29 07:43:49;;;;;;;;;7.33;7.00;;;;;22.06;41.57;101024.44;5097015;27;46583;-62
2022/07/29 07:46:15;;;;;;;;;10.67;10.00;;;;;22.01;42.38;101012.31;5096698;27;45442;-64
2022/07/29 07:48:41;;;;;;;;;12.67;8.00;;;;;22.07;42.14;101012.59;5096636;27;45389;-67
2022/07/29 07:51:07;;;;;;;;;9.00;6.67;;;;;22.15;42.08;101014.56;5096983;27;45406;-66
2022/07/29 07:53:33;;;;;;;;;9.00;9.00;;;;;22.22;42.55;101021.06;5096505;27;47071;-61
2022/07/29 07:55:58;;;;;;;;;11.00;9.33;;;;;22.33;42.23;101020.00;5078580;27;45444;-63
2022/07/29 07:58:23;;;;;;;;;9.33;8.00;;;;;22.30;42.04;101007.63;5096935;27;45452;-65
2022/07/29 08:00:49;;;;;;;;;9.67;9.67;;;;;22.44;41.99;101030.63;5097284;27;45545;-66
2022/07/29 08:03:14;;;;;;;;;9.00;8.00;;;;;22.38;41.26;101017.69;5078375;27;45263;-64
2022/07/29 08:05:40;;;;;;;;;13.00;8.67;;;;;22.44;42.21;101013.53;5078487;27;45251;-67
2022/07/29 08:08:06;;;;;;;;;9.00;9.00;;;;;22.60;41.78;101032.66;5079020;27;45313;-63
2022/07/29 08:13:18;;;;;;;;;22.00;20.00;;;;;22.67;40.64;101015.66;5096404;27;45305;-63
2022/07/29 08:15:45;;;;;;;;;10.33;9.00;;;;;22.83;42.60;101025.84;5096294;27;45176;-65
2022/07/29 08:18:14;;;;;;;;;8.00;8.00;;;;;22.88;39.96;101022.66;5096579;27;45469;-61
2022/07/29 08:20:40;;;;;;;;;8.00;5.00;;;;;23.07;40.51;101022.50;5096946;27;45490;-65
2022/07/29 08:23:08;;;;;;;;;8.00;6.33;;;;;23.39;40.05;101021.03;5096419;27;45416;-65
2022/07/29 08:25:38;;;;;;;;;8.00;6.00;;;;;23.65;38.51;101023.78;5095291;27;45308;-65
2022/07/29 08:28:05;;;;;;;;;8.67;8.67;;;;;23.86;38.66;101023.41;5096957;27;45401;-65
2022/07/29 08:30:32;;;;;;;;;5.67;5.67;;;;;24.02;37.12;101021.63;5097090;27;45569;-63
2022/07/29 08:32:57;;;;;;;;;7.00;6.00;;;;;24.05;37.71;101007.72;5096505;27;45343;-64
2022/07/29 08:35:24;;;;;;;;;7.75;7.50;;;;;24.33;36.36;101021.94;5096606;27;45509;-65
2022/07/29 08:37:50;;;;;;;;;8.25;7.25;;;;;24.41;35.97;101008.38;5078370;27;45812;-66
2022/07/29 08:40:16;;;;;;;;;6.00;6.00;;;;;24.66;37.36;101022.91;5069825;27;45475;-67
2022/07/29 08:42:42;;;;;;;;;5.00;5.00;;;;;25.06;36.40;101018.56;5074575;28;45493;-67
2022/07/29 08:45:09;;;;;;;;;5.75;5.75;;;;;25.41;34.85;101011.06;5075752;28;45385;-65
2022/07/29 08:47:39;;;;;;;;;13.50;9.50;;;;;25.97;33.72;101018.28;5077651;27;45250;-64
2022/07/29 08:50:07;;;;;;;;;7.00;5.75;;;;;26.38;33.08;101018.97;5080377;28;45838;-64
2022/07/29 08:52:36;;;;;;;;;7.00;5.50;;;;;26.56;33.84;101018.69;5078046;28;45381;-65
2022/07/29 08:55:02;;;;;;;;;5.00;5.00;;;;;26.89;32.70;101022.06;5079490;28;45365;-63
2022/07/29 08:57:29;;;;;;;;;4.50;3.00;;;;;27.01;33.44;101011.59;5079368;28;45279;-66
2022/07/29 08:59:57;;;;;;;;;7.75;5.00;;;;;27.40;32.93;101014.16;5079606;28;46055;-62
2022/07/29 09:02:23;;;;;;;;;8.00;6.75;;;;;27.70;31.03;101017.81;5079279;27;45418;-69
2022/07/29 09:04:49;;;;;;;;;4.80;4.00;;;;;27.73;31.22;101019.31;5077645;28;45415;-63
2022/07/29 09:07:17;;;;;;;;;10.50;8.75;;;;;28.05;30.73;101013.47;5079031;28;45314;-63
2022/07/29 09:09:43;;;;;;;;;8.25;7.00;;;;;28.08;29.67;101004.88;5060643;28;45255;-64
2022/07/29 09:12:11;;;;;;;;;5.00;5.00;;;;;28.46;31.88;101019.28;5078514;27;46109;-64
2022/07/29 09:14:40;;;;;;;;;6.20;6.20;;;;;28.74;29.73;101010.31;5059668;28;45521;-63
2022/07/29 09:17:07;;;;;;;;;6.40;5.60;;;;;29.06;31.07;101009.00;5079259;27;45203;-65
2022/07/29 09:19:34;;;;;;;;;7.40;5.80;;;;;29.32;30.67;101013.88;5079303;27;45258;-67
2022/07/29 09:22:02;;;;;;;;;9.40;7.80;;;;;29.61;29.85;101010.09;5077943;28;46395;-67
2022/07/29 09:24:38;;;;;;;;;6.60;6.40;;;;;29.87;29.92;101018.50;5077299;28;45445;-67
2022/07/29 09:27:22;;;;;;;;;5.40;5.40;;;;;29.64;27.46;100994.09;5060817;28;45464;-65
2022/07/29 09:30:10;;;;;;;;;4.80;4.00;;;;;29.63;28.98;101008.00;5078847;28;45565;-67
2022/07/29 09:32:58;;;;;;;;;5.40;5.40;;;;;29.87;29.25;100996.56;5078748;28;45397;-66
2022/07/29 09:35:25;;;;;;;;;4.00;4.00;;;;;30.37;27.87;101008.22;5060160;28;45276;-66
2022/07/29 09:37:51;;;;;;;;;7.60;7.00;;;;;30.41;26.44;101006.75;5078513;28;45346;-68
2022/07/29 09:40:16;;;;;;;;;4.50;4.50;;;;;30.34;27.16;101013.25;5086409;27;45421;-64
2022/07/29 09:42:42;;;;;;;;;5.75;5.75;;;;;30.64;27.81;101005.59;5098685;27;45977;-62
2022/07/29 09:45:08;;;;;;;;;6.00;4.75;;;;;30.87;27.99;101003.31;5098744;27;45787;-64
2022/07/29 09:47:48;;;;;;;;;5.80;5.60;;;;;31.27;27.12;101000.63;5098565;27;45413;-67
2022/07/29 09:50:14;;;;;;;;;8.80;8.00;;;;;31.60;26.85;100990.44;5097384;27;45483;-66
2022/07/29 09:52:51;;;;;;;;;6.00;5.60;;;;;31.90;25.89;100998.22;5097730;27;45545;-68
2022/07/29 09:55:18;;;;;;;;;7.00;5.60;;;;;32.12;25.44;100999.63;5079976;27;45457;-68
2022/07/29 09:57:45;;;;;;;;;6.00;4.60;;;;;32.00;25.05;101004.09;5096702;27;45408;-66
2022/07/29 10:00:17;;;;;;;;;6.00;5.60;;;;;32.22;26.56;100990.91;5098699;27;45287;-66
2022/07/29 10:02:45;;;;;;;;;3.80;3.80;;;;;32.69;25.98;100997.91;5098744;27;45391;-66
2022/07/29 10:05:26;;;;;;;;;8.00;6.20;;;;;33.08;26.09;101001.47;5098577;27;45353;-68
2022/07/29 10:07:56;;;;;;;;;4.40;4.40;;;;;33.30;25.69;100990.88;5098446;27;45385;-69
2022/07/29 10:10:31;;;;;;;;;5.40;4.00;;;;;33.30;23.30;100991.72;5098474;27;45521;-66
2022/07/29 10:13:00;;;;;;;;;4.00;4.00;;;;;32.87;22.47;100985.31;5098052;27;45490;-65
2022/07/29 10:15:28;;;;;;;;;3.00;3.00;;;;;32.82;23.97;100997.84;5098204;27;45369;-70
2022/07/29 10:17:55;;;;;;;;;6.00;3.60;;;;;32.95;25.34;101009.84;5096952;27;45526;-65
2022/07/29 10:20:25;;;;;;;;;2.00;2.00;;;;;33.04;24.18;101012.09;5097432;27;45177;-68
2022/07/29 10:22:51;;;;;;;;;5.00;5.00;;;;;32.73;23.55;101001.91;5097764;27;45427;-65
2022/07/29 10:25:18;;;;;;;;;6.20;5.00;;;;;32.53;24.10;101003.91;5096503;27;45493;-66
2022/07/29 10:27:47;;;;;;;;;5.00;3.60;;;;;32.33;24.09;100994.94;5098325;27;45444;-64
2022/07/29 10:30:15;;;;;;;;;4.80;4.40;;;;;32.16;25.05;100998.13;5096991;27;45325;-69
2022/07/29 10:33:18;;;;;;;;;4.00;4.00;;;;;31.81;24.87;101007.78;5097903;27;47299;-67
2022/07/29 10:36:02;;;;;;;;;5.80;5.80;;;;;31.44;24.94;100999.13;5097940;27;45264;-68
2022/07/29 10:38:33;;;;;;;;;8.00;7.60;;;;;31.23;25.58;101002.09;5079463;27;45313;-69
2022/07/29 10:41:34;;;;;;;;;5.00;5.00;;;;;30.87;26.17;101008.81;5098145;27;45443;-70
2022/07/29 10:44:08;;;;;;;;;5.80;5.00;;;;;30.53;25.98;101010.59;5097404;27;45323;-65
2022/07/29 10:46:38;;;;;;;;;8.20;5.80;;;;;30.21;26.29;101009.44;5079975;27;45287;-63
2022/07/29 10:49:06;;;;;;;;;5.00;3.40;;;;;30.09;26.89;101011.06;5097568;27;45337;-64
2022/07/29 10:51:49;;;;;;;;;6.00;4.40;;;;;29.97;27.12;101018.13;5079701;27;45870;-70
2022/07/29 10:54:15;;;;;;;;;4.00;4.00;;;;;29.75;26.92;101009.13;5097721;27;45381;-65
2022/07/29 10:56:41;;;;;;;;;7.00;6.20;;;;;29.65;26.94;101009.50;5096650;27;45329;-64
2022/07/29 10:59:23;;;;;;;;;4.00;4.00;;;;;29.41;27.79;101012.66;5097929;27;45217;-64
2022/07/29 11:01:54;;;;;;;;;4.20;4.20;;;;;29.27;27.83;101008.13;5079110;27;45644;-62
2022/07/29 11:04:44;;;;;;;;;4.00;4.00;;;;;29.17;27.86;101011.22;5097474;27;45693;-67
2022/07/29 11:07:11;;;;;;;;;4.60;3.60;;;;;29.11;27.79;101006.50;5079760;27;45469;-65
2022/07/29 11:09:37;;;;;;;;;6.40;4.60;;;;;29.03;28.66;101009.38;5096319;27;45220;-64
2022/07/29 11:12:05;;;;;;;;;3.80;3.80;;;;;28.95;28.30;100987.63;5097788;27;45450;-65
2022/07/29 11:14:56;;;;;;;;;4.60;3.80;;;;;28.99;28.28;101008.94;5095965;27;46153;-63
2022/07/29 11:17:21;;;;;;;;;5.00;3.40;;;;;28.90;28.36;100999.16;5097396;27;45330;-63
2022/07/29 11:19:47;;;;;;;;;3.75;3.75;;;;;28.91;28.24;100995.38;5097575;27;45498;-66
2022/07/29 11:22:32;;;;;;;;;4.00;3.50;;;;;28.74;28.12;100978.31;5098110;27;45398;-64
2022/07/29 11:25:17;;;;;;;;;5.40;4.40;;;;;28.83;28.45;100994.63;5097111;27;46931;-68
2022/07/29 11:27:44;;;;;;;;;7.00;4.00;;;;;28.86;28.81;101007.91;5078977;27;45217;-64
2022/07/29 11:30:11;;;;;;;;;4.00;4.00;;;;;28.89;28.63;101013.03;5097382;27;45553;-64
2022/07/29 11:32:42;;;;;;;;;4.00;4.00;;;;;28.88;28.51;101008.59;5097387;27;45366;-70
2022/07/29 11:35:23;;;;;;;;;1.80;1.80;;;;;28.81;29.07;100993.97;5096555;27;46391;-66